sensor_id;sensor_type;location;lat;lon;timestamp;P1;durP1;ratioP1;P2;durP2;ratioP2
8986;SDS011;4529;51.360;12.474;2023-06-22T00:02:53;8.67;;;7.77;;
8986;SDS011;4529;51.360;12.474;2023-06-22T00:07:56;9.13;;;7.70;;
8986;SDS011;4529;51.360;12.474;2023-06-22T00:12:59;8.70;;;7.73;;
8986;SDS011;4529;51.360;12.474;2023-06-22T00:18:03;10.10;;;8.27;;
8986;SDS011;4529;51.360;12.474;2023-06-22T00:23:06;8.97;;;8.07;;
8986;SDS011;4529;51.360;12.474;2023-06-22T00:28:10;8.67;;;7.87;;
8986;SDS011;4529;51.360;12.474;2023-06-22T00:33:13;9.13;;;8.07;;
8986;SDS011;4529;51.360;12.474;2023-06-22T00:38:17;8.60;;;7.80;;
8986;SDS011;4529;51.360;12.474;2023-06-22T00:43:20;9.23;;;8.33;;
8986;SDS011;4529;51.360;12.474;2023-06-22T00:48:24;8.77;;;7.87;;
8986;SDS011;4529;51.360;12.474;2023-06-22T00:53:27;8.93;;;7.97;;
8986;SDS011;4529;51.360;12.474;2023-06-22T00:58:31;8.07;;;7.27;;
8986;SDS011;4529;51.360;12.474;2023-06-22T01:03:35;7.80;;;7.10;;
8986;SDS011;4529;51.360;12.474;2023-06-22T01:08:46;9.27;;;7.77;;
8986;SDS011;4529;51.360;12.474;2023-06-22T01:13:56;8.73;;;7.73;;
8986;SDS011;4529;51.360;12.474;2023-06-22T01:19:34;8.00;;;7.13;;
8986;SDS011;4529;51.360;12.474;2023-06-22T01:30:24;8.13;;;7.33;;
8986;SDS011;4529;51.360;12.474;2023-06-22T01:35:27;10.17;;;7.60;;
8986;SDS011;4529;51.360;12.474;2023-06-22T01:40:31;9.83;;;7.90;;
8986;SDS011;4529;51.360;12.474;2023-06-22T01:45:35;8.87;;;7.83;;
8986;SDS011;4529;51.360;12.474;2023-06-22T01:50:39;8.97;;;7.80;;
8986;SDS011;4529;51.360;12.474;2023-06-22T01:55:43;8.73;;;7.20;;
8986;SDS011;4529;51.360;12.474;2023-06-22T02:00:48;8.80;;;7.47;;
8986;SDS011;4529;51.360;12.474;2023-06-22T02:05:55;10.37;;;7.33;;
8986;SDS011;4529;51.360;12.474;2023-06-22T02:11:03;8.53;;;7.63;;
8986;SDS011;4529;51.360;12.474;2023-06-22T02:16:06;9.33;;;7.77;;
8986;SDS011;4529;51.360;12.474;2023-06-22T02:21:10;10.20;;;6.97;;
8986;SDS011;4529;51.360;12.474;2023-06-22T02:26:16;8.07;;;7.10;;
8986;SDS011;4529;51.360;12.474;2023-06-22T02:31:17;9.87;;;7.77;;
8986;SDS011;4529;51.360;12.474;2023-06-22T02:36:20;11.33;;;7.00;;
8986;SDS011;4529;51.360;12.474;2023-06-22T02:41:24;9.60;;;7.60;;
8986;SDS011;4529;51.360;12.474;2023-06-22T02:46:27;10.13;;;7.77;;
8986;SDS011;4529;51.360;12.474;2023-06-22T02:51:33;11.43;;;7.83;;
8986;SDS011;4529;51.360;12.474;2023-06-22T02:56:34;10.07;;;8.40;;
8986;SDS011;4529;51.360;12.474;2023-06-22T03:01:38;9.23;;;7.97;;
8986;SDS011;4529;51.360;12.474;2023-06-22T03:06:42;11.27;;;8.30;;
8986;SDS011;4529;51.360;12.474;2023-06-22T03:11:46;10.90;;;8.47;;
8986;SDS011;4529;51.360;12.474;2023-06-22T03:16:50;11.00;;;8.33;;
8986;SDS011;4529;51.360;12.474;2023-06-22T03:21:53;10.37;;;8.97;;
8986;SDS011;4529;51.360;12.474;2023-06-22T03:26:57;11.00;;;8.80;;
8986;SDS011;4529;51.360;12.474;2023-06-22T03:32:00;12.77;;;9.80;;
8986;SDS011;4529;51.360;12.474;2023-06-22T03:37:04;10.73;;;9.30;;
8986;SDS011;4529;51.360;12.474;2023-06-22T03:42:07;12.07;;;9.53;;
8986;SDS011;4529;51.360;12.474;2023-06-22T03:47:11;16.67;;;9.80;;
8986;SDS011;4529;51.360;12.474;2023-06-22T03:52:15;14.70;;;9.70;;
8986;SDS011;4529;51.360;12.474;2023-06-22T03:57:19;11.17;;;9.97;;
8986;SDS011;4529;51.360;12.474;2023-06-22T04:02:23;16.50;;;10.83;;
8986;SDS011;4529;51.360;12.474;2023-06-22T04:07:27;11.37;;;10.17;;
8986;SDS011;4529;51.360;12.474;2023-06-22T04:12:30;12.20;;;9.27;;
8986;SDS011;4529;51.360;12.474;2023-06-22T04:17:33;10.63;;;8.70;;
8986;SDS011;4529;51.360;12.474;2023-06-22T04:22:37;14.77;;;8.67;;
8986;SDS011;4529;51.360;12.474;2023-06-22T04:27:40;12.77;;;9.77;;
8986;SDS011;4529;51.360;12.474;2023-06-22T04:32:44;11.40;;;8.57;;
8986;SDS011;4529;51.360;12.474;2023-06-22T04:37:48;14.47;;;9.63;;
8986;SDS011;4529;51.360;12.474;2023-06-22T04:42:51;13.33;;;10.20;;
8986;SDS011;4529;51.360;12.474;2023-06-22T04:47:56;14.43;;;9.83;;
8986;SDS011;4529;51.360;12.474;2023-06-22T04:53:00;12.00;;;9.27;;
8986;SDS011;4529;51.360;12.474;2023-06-22T04:58:03;11.43;;;10.23;;
8986;SDS011;4529;51.360;12.474;2023-06-22T05:03:07;12.37;;;9.83;;
8986;SDS011;4529;51.360;12.474;2023-06-22T05:08:11;13.60;;;8.87;;
8986;SDS011;4529;51.360;12.474;2023-06-22T05:13:14;12.80;;;10.00;;
8986;SDS011;4529;51.360;12.474;2023-06-22T05:18:17;14.80;;;9.57;;
8986;SDS011;4529;51.360;12.474;2023-06-22T05:23:21;11.70;;;9.20;;
8986;SDS011;4529;51.360;12.474;2023-06-22T05:28:25;11.50;;;9.97;;
8986;SDS011;4529;51.360;12.474;2023-06-22T05:33:29;14.67;;;9.97;;
8986;SDS011;4529;51.360;12.474;2023-06-22T05:38:34;14.20;;;11.13;;
8986;SDS011;4529;51.360;12.474;2023-06-22T05:43:37;18.87;;;11.80;;
8986;SDS011;4529;51.360;12.474;2023-06-22T05:48:41;15.00;;;11.43;;
8986;SDS011;4529;51.360;12.474;2023-06-22T05:53:44;11.43;;;9.80;;
8986;SDS011;4529;51.360;12.474;2023-06-22T05:58:48;16.63;;;10.47;;
8986;SDS011;4529;51.360;12.474;2023-06-22T06:03:52;10.50;;;9.07;;
8986;SDS011;4529;51.360;12.474;2023-06-22T06:08:56;11.30;;;9.80;;
8986;SDS011;4529;51.360;12.474;2023-06-22T06:14:01;15.37;;;9.77;;
8986;SDS011;4529;51.360;12.474;2023-06-22T06:19:04;13.87;;;9.47;;
8986;SDS011;4529;51.360;12.474;2023-06-22T06:24:08;9.10;;;8.20;;
8986;SDS011;4529;51.360;12.474;2023-06-22T06:29:11;8.93;;;7.90;;
8986;SDS011;4529;51.360;12.474;2023-06-22T06:34:14;12.20;;;7.60;;
8986;SDS011;4529;51.360;12.474;2023-06-22T06:39:18;12.37;;;8.00;;
8986;SDS011;4529;51.360;12.474;2023-06-22T06:44:21;9.50;;;8.37;;
8986;SDS011;4529;51.360;12.474;2023-06-22T06:49:25;9.17;;;8.27;;
8986;SDS011;4529;51.360;12.474;2023-06-22T06:54:28;9.40;;;7.90;;
8986;SDS011;4529;51.360;12.474;2023-06-22T06:59:32;8.83;;;7.93;;
8986;SDS011;4529;51.360;12.474;2023-06-22T07:04:35;12.40;;;8.50;;
8986;SDS011;4529;51.360;12.474;2023-06-22T07:09:39;11.40;;;8.30;;
8986;SDS011;4529;51.360;12.474;2023-06-22T07:14:43;11.60;;;8.53;;
8986;SDS011;4529;51.360;12.474;2023-06-22T07:19:47;9.60;;;8.60;;
8986;SDS011;4529;51.360;12.474;2023-06-22T07:24:51;9.43;;;8.57;;
8986;SDS011;4529;51.360;12.474;2023-06-22T07:29:55;10.17;;;8.33;;
8986;SDS011;4529;51.360;12.474;2023-06-22T07:34:59;9.20;;;8.30;;
8986;SDS011;4529;51.360;12.474;2023-06-22T07:40:03;9.73;;;8.83;;
8986;SDS011;4529;51.360;12.474;2023-06-22T07:45:07;10.17;;;9.27;;
8986;SDS011;4529;51.360;12.474;2023-06-22T07:50:11;10.60;;;9.17;;
8986;SDS011;4529;51.360;12.474;2023-06-22T07:55:14;9.73;;;8.57;;
8986;SDS011;4529;51.360;12.474;2023-06-22T08:00:18;10.10;;;8.93;;
8986;SDS011;4529;51.360;12.474;2023-06-22T08:05:21;10.47;;;9.13;;
8986;SDS011;4529;51.360;12.474;2023-06-22T08:10:25;11.00;;;8.83;;
8986;SDS011;4529;51.360;12.474;2023-06-22T08:15:28;9.07;;;8.27;;
8986;SDS011;4529;51.360;12.474;2023-06-22T08:20:31;9.00;;;8.10;;
8986;SDS011;4529;51.360;12.474;2023-06-22T08:25:35;9.37;;;8.47;;
8986;SDS011;4529;51.360;12.474;2023-06-22T08:30:38;8.07;;;7.30;;
8986;SDS011;4529;51.360;12.474;2023-06-22T08:35:42;8.60;;;7.80;;
8986;SDS011;4529;51.360;12.474;2023-06-22T08:40:45;8.60;;;7.73;;
8986;SDS011;4529;51.360;12.474;2023-06-22T08:45:49;8.87;;;7.97;;
8986;SDS011;4529;51.360;12.474;2023-06-22T08:50:52;8.20;;;7.40;;
8986;SDS011;4529;51.360;12.474;2023-06-22T08:55:56;8.40;;;7.60;;
8986;SDS011;4529;51.360;12.474;2023-06-22T09:00:59;8.30;;;7.50;;
8986;SDS011;4529;51.360;12.474;2023-06-22T09:06:04;8.77;;;7.97;;
8986;SDS011;4529;51.360;12.474;2023-06-22T09:11:07;8.97;;;8.07;;
8986;SDS011;4529;51.360;12.474;2023-06-22T09:16:11;9.10;;;8.30;;
8986;SDS011;4529;51.360;12.474;2023-06-22T09:21:15;9.10;;;8.30;;
8986;SDS011;4529;51.360;12.474;2023-06-22T09:26:20;8.70;;;7.90;;
8986;SDS011;4529;51.360;12.474;2023-06-22T09:31:24;9.00;;;8.20;;
8986;SDS011;4529;51.360;12.474;2023-06-22T09:36:27;8.73;;;7.93;;
8986;SDS011;4529;51.360;12.474;2023-06-22T09:41:30;8.97;;;8.27;;
8986;SDS011;4529;51.360;12.474;2023-06-22T09:46:34;8.73;;;7.93;;
8986;SDS011;4529;51.360;12.474;2023-06-22T09:51:37;8.30;;;7.40;;
8986;SDS011;4529;51.360;12.474;2023-06-22T09:56:41;8.10;;;7.50;;
8986;SDS011;4529;51.360;12.474;2023-06-22T10:01:44;8.13;;;7.43;;
8986;SDS011;4529;51.360;12.474;2023-06-22T10:06:48;7.97;;;7.28;;
8986;SDS011;4529;51.360;12.474;2023-06-22T10:11:51;8.03;;;7.33;;
8986;SDS011;4529;51.360;12.474;2023-06-22T10:16:55;7.70;;;7.00;;
8986;SDS011;4529;51.360;12.474;2023-06-22T10:21:59;7.30;;;6.63;;
8986;SDS011;4529;51.360;12.474;2023-06-22T10:27:03;8.27;;;6.87;;
8986;SDS011;4529;51.360;12.474;2023-06-22T10:32:07;7.47;;;6.78;;
8986;SDS011;4529;51.360;12.474;2023-06-22T10:37:10;7.77;;;6.67;;
8986;SDS011;4529;51.360;12.474;2023-06-22T10:42:14;6.73;;;5.87;;
8986;SDS011;4529;51.360;12.474;2023-06-22T10:47:19;8.37;;;6.30;;
8986;SDS011;4529;51.360;12.474;2023-06-22T10:52:22;6.77;;;5.73;;
8986;SDS011;4529;51.360;12.474;2023-06-22T10:57:26;6.55;;;5.92;;
8986;SDS011;4529;51.360;12.474;2023-06-22T11:02:40;9.05;;;6.22;;
8986;SDS011;4529;51.360;12.474;2023-06-22T11:07:43;6.85;;;6.25;;
8986;SDS011;4529;51.360;12.474;2023-06-22T11:12:47;6.60;;;6.03;;
8986;SDS011;4529;51.360;12.474;2023-06-22T11:17:50;6.73;;;6.03;;
8986;SDS011;4529;51.360;12.474;2023-06-22T11:22:54;6.22;;;5.72;;
8986;SDS011;4529;51.360;12.474;2023-06-22T11:27:57;6.83;;;6.22;;
8986;SDS011;4529;51.360;12.474;2023-06-22T11:33:01;7.23;;;6.53;;
8986;SDS011;4529;51.360;12.474;2023-06-22T11:38:05;7.57;;;6.33;;
8986;SDS011;4529;51.360;12.474;2023-06-22T11:43:09;6.80;;;6.15;;
8986;SDS011;4529;51.360;12.474;2023-06-22T11:48:13;6.70;;;6.07;;
8986;SDS011;4529;51.360;12.474;2023-06-22T11:53:16;6.87;;;6.27;;
8986;SDS011;4529;51.360;12.474;2023-06-22T11:58:20;7.53;;;6.87;;
8986;SDS011;4529;51.360;12.474;2023-06-22T12:03:23;6.93;;;6.33;;
8986;SDS011;4529;51.360;12.474;2023-06-22T12:08:27;8.27;;;6.57;;
8986;SDS011;4529;51.360;12.474;2023-06-22T12:13:30;6.83;;;6.23;;
8986;SDS011;4529;51.360;12.474;2023-06-22T12:18:34;7.37;;;6.67;;
8986;SDS011;4529;51.360;12.474;2023-06-22T12:23:38;7.07;;;6.40;;
8986;SDS011;4529;51.360;12.474;2023-06-22T12:28:42;8.60;;;6.97;;
8986;SDS011;4529;51.360;12.474;2023-06-22T12:33:45;8.50;;;7.03;;
8986;SDS011;4529;51.360;12.474;2023-06-22T12:38:49;6.90;;;6.30;;
8986;SDS011;4529;51.360;12.474;2023-06-22T12:43:52;7.43;;;6.73;;
8986;SDS011;4529;51.360;12.474;2023-06-22T12:48:56;7.58;;;6.87;;
8986;SDS011;4529;51.360;12.474;2023-06-22T12:53:59;7.60;;;6.55;;
8986;SDS011;4529;51.360;12.474;2023-06-22T12:59:06;7.05;;;6.45;;
8986;SDS011;4529;51.360;12.474;2023-06-22T13:04:06;7.97;;;7.20;;
8986;SDS011;4529;51.360;12.474;2023-06-22T13:09:10;7.72;;;7.03;;
8986;SDS011;4529;51.360;12.474;2023-06-22T13:14:13;7.70;;;7.00;;
8986;SDS011;4529;51.360;12.474;2023-06-22T13:19:17;7.50;;;6.80;;
8986;SDS011;4529;51.360;12.474;2023-06-22T13:24:20;8.07;;;7.27;;
8986;SDS011;4529;51.360;12.474;2023-06-22T13:29:24;8.03;;;7.23;;
8986;SDS011;4529;51.360;12.474;2023-06-22T13:34:27;7.47;;;6.77;;
8986;SDS011;4529;51.360;12.474;2023-06-22T13:39:31;7.97;;;7.17;;
8986;SDS011;4529;51.360;12.474;2023-06-22T13:44:35;8.05;;;7.25;;
8986;SDS011;4529;51.360;12.474;2023-06-22T13:49:40;7.75;;;7.05;;
8986;SDS011;4529;51.360;12.474;2023-06-22T13:54:43;10.80;;;7.90;;
8986;SDS011;4529;51.360;12.474;2023-06-22T13:59:47;7.77;;;7.07;;
8986;SDS011;4529;51.360;12.474;2023-06-22T14:04:53;8.08;;;7.37;;
8986;SDS011;4529;51.360;12.474;2023-06-22T14:09:57;8.35;;;7.65;;
8986;SDS011;4529;51.360;12.474;2023-06-22T14:15:00;7.97;;;7.27;;
8986;SDS011;4529;51.360;12.474;2023-06-22T14:20:04;8.25;;;7.42;;
8986;SDS011;4529;51.360;12.474;2023-06-22T14:25:07;9.85;;;7.58;;
8986;SDS011;4529;51.360;12.474;2023-06-22T14:30:11;8.08;;;7.28;;
8986;SDS011;4529;51.360;12.474;2023-06-22T14:35:15;8.55;;;7.75;;
8986;SDS011;4529;51.360;12.474;2023-06-22T14:40:19;9.35;;;7.62;;
8986;SDS011;4529;51.360;12.474;2023-06-22T14:45:23;8.85;;;8.03;;
8986;SDS011;4529;51.360;12.474;2023-06-22T14:50:27;8.75;;;7.90;;
8986;SDS011;4529;51.360;12.474;2023-06-22T14:55:30;9.00;;;8.10;;
8986;SDS011;4529;51.360;12.474;2023-06-22T15:00:33;9.35;;;8.35;;
8986;SDS011;4529;51.360;12.474;2023-06-22T15:05:37;9.50;;;8.35;;
8986;SDS011;4529;51.360;12.474;2023-06-22T15:10:40;9.38;;;8.58;;
8986;SDS011;4529;51.360;12.474;2023-06-22T15:15:45;8.65;;;7.85;;
8986;SDS011;4529;51.360;12.474;2023-06-22T15:20:51;10.78;;;8.00;;
8986;SDS011;4529;51.360;12.474;2023-06-22T15:25:55;8.73;;;8.00;;
8986;SDS011;4529;51.360;12.474;2023-06-22T15:30:58;9.33;;;8.53;;
8986;SDS011;4529;51.360;12.474;2023-06-22T15:36:02;9.55;;;8.65;;
8986;SDS011;4529;51.360;12.474;2023-06-22T15:41:05;9.18;;;8.28;;
8986;SDS011;4529;51.360;12.474;2023-06-22T15:46:09;8.60;;;7.80;;
8986;SDS011;4529;51.360;12.474;2023-06-22T15:51:12;8.90;;;8.15;;
8986;SDS011;4529;51.360;12.474;2023-06-22T15:56:16;8.68;;;7.87;;
8986;SDS011;4529;51.360;12.474;2023-06-22T16:01:24;8.98;;;8.18;;
8986;SDS011;4529;51.360;12.474;2023-06-22T16:06:27;10.00;;;8.93;;
8986;SDS011;4529;51.360;12.474;2023-06-22T16:11:31;8.50;;;7.47;;
8986;SDS011;4529;51.360;12.474;2023-06-22T16:16:34;8.88;;;8.03;;
8986;SDS011;4529;51.360;12.474;2023-06-22T16:21:38;8.70;;;7.90;;
8986;SDS011;4529;51.360;12.474;2023-06-22T16:26:42;8.23;;;7.47;;
8986;SDS011;4529;51.360;12.474;2023-06-22T16:31:46;8.60;;;7.80;;
8986;SDS011;4529;51.360;12.474;2023-06-22T16:36:50;9.35;;;7.42;;
8986;SDS011;4529;51.360;12.474;2023-06-22T16:41:54;9.55;;;7.67;;
8986;SDS011;4529;51.360;12.474;2023-06-22T16:46:58;10.37;;;8.10;;
8986;SDS011;4529;51.360;12.474;2023-06-22T16:52:02;8.87;;;8.07;;
8986;SDS011;4529;51.360;12.474;2023-06-22T16:57:05;8.55;;;7.75;;
8986;SDS011;4529;51.360;12.474;2023-06-22T17:02:13;8.55;;;7.75;;
8986;SDS011;4529;51.360;12.474;2023-06-22T17:07:16;7.85;;;7.25;;
8986;SDS011;4529;51.360;12.474;2023-06-22T17:12:19;9.23;;;8.43;;
8986;SDS011;4529;51.360;12.474;2023-06-22T17:17:23;8.50;;;7.60;;
8986;SDS011;4529;51.360;12.474;2023-06-22T17:22:26;10.70;;;8.07;;
8986;SDS011;4529;51.360;12.474;2023-06-22T17:27:30;8.35;;;7.55;;
8986;SDS011;4529;51.360;12.474;2023-06-22T17:32:33;8.17;;;7.37;;
8986;SDS011;4529;51.360;12.474;2023-06-22T17:37:50;8.50;;;7.80;;
8986;SDS011;4529;51.360;12.474;2023-06-22T17:43:03;8.37;;;7.57;;
8986;SDS011;4529;51.360;12.474;2023-06-22T17:48:06;8.47;;;7.60;;
8986;SDS011;4529;51.360;12.474;2023-06-22T17:53:11;8.90;;;7.97;;
8986;SDS011;4529;51.360;12.474;2023-06-22T17:58:14;8.70;;;7.90;;
8986;SDS011;4529;51.360;12.474;2023-06-22T18:03:22;11.18;;;8.05;;
8986;SDS011;4529;51.360;12.474;2023-06-22T18:08:24;9.20;;;8.30;;
8986;SDS011;4529;51.360;12.474;2023-06-22T18:13:27;9.47;;;8.57;;
8986;SDS011;4529;51.360;12.474;2023-06-22T18:18:31;13.40;;;8.73;;
8986;SDS011;4529;51.360;12.474;2023-06-22T18:23:34;10.32;;;8.28;;
8986;SDS011;4529;51.360;12.474;2023-06-22T18:28:38;9.55;;;8.75;;
8986;SDS011;4529;51.360;12.474;2023-06-22T18:33:42;9.40;;;8.50;;
8986;SDS011;4529;51.360;12.474;2023-06-22T18:38:45;9.97;;;8.97;;
8986;SDS011;4529;51.360;12.474;2023-06-22T18:43:51;9.90;;;8.90;;
8986;SDS011;4529;51.360;12.474;2023-06-22T18:48:58;9.90;;;8.93;;
8986;SDS011;4529;51.360;12.474;2023-06-22T18:54:02;9.73;;;8.90;;
8986;SDS011;4529;51.360;12.474;2023-06-22T18:59:05;9.30;;;8.50;;
8986;SDS011;4529;51.360;12.474;2023-06-22T19:04:14;10.27;;;9.37;;
8986;SDS011;4529;51.360;12.474;2023-06-22T19:09:18;10.03;;;9.03;;
8986;SDS011;4529;51.360;12.474;2023-06-22T19:14:21;10.17;;;9.17;;
8986;SDS011;4529;51.360;12.474;2023-06-22T19:19:24;10.27;;;9.27;;
8986;SDS011;4529;51.360;12.474;2023-06-22T19:24:31;10.40;;;9.50;;
8986;SDS011;4529;51.360;12.474;2023-06-22T19:29:34;10.10;;;9.30;;
8986;SDS011;4529;51.360;12.474;2023-06-22T19:34:41;10.43;;;9.53;;
8986;SDS011;4529;51.360;12.474;2023-06-22T19:39:44;10.73;;;9.67;;
8986;SDS011;4529;51.360;12.474;2023-06-22T19:44:48;10.53;;;9.57;;
8986;SDS011;4529;51.360;12.474;2023-06-22T19:50:01;10.47;;;9.57;;
8986;SDS011;4529;51.360;12.474;2023-06-22T19:55:02;10.63;;;9.60;;
8986;SDS011;4529;51.360;12.474;2023-06-22T20:00:06;11.47;;;10.20;;
8986;SDS011;4529;51.360;12.474;2023-06-22T20:05:10;10.47;;;9.50;;
8986;SDS011;4529;51.360;12.474;2023-06-22T20:10:13;16.27;;;10.87;;
8986;SDS011;4529;51.360;12.474;2023-06-22T20:15:19;10.80;;;9.83;;
8986;SDS011;4529;51.360;12.474;2023-06-22T20:20:24;12.30;;;10.50;;
8986;SDS011;4529;51.360;12.474;2023-06-22T20:25:28;12.50;;;10.67;;
8986;SDS011;4529;51.360;12.474;2023-06-22T20:30:31;12.20;;;10.47;;
8986;SDS011;4529;51.360;12.474;2023-06-22T20:35:34;12.20;;;10.90;;
8986;SDS011;4529;51.360;12.474;2023-06-22T20:40:37;14.10;;;10.83;;
8986;SDS011;4529;51.360;12.474;2023-06-22T20:45:40;8.23;;;3.10;;
8986;SDS011;4529;51.360;12.474;2023-06-22T20:50:44;5.87;;;2.90;;
8986;SDS011;4529;51.360;12.474;2023-06-22T20:55:47;7.53;;;2.77;;
8986;SDS011;4529;51.360;12.474;2023-06-22T21:06:33;3.73;;;2.67;;
8986;SDS011;4529;51.360;12.474;2023-06-22T21:11:36;3.13;;;1.90;;
8986;SDS011;4529;51.360;12.474;2023-06-22T21:16:40;1.63;;;1.53;;
8986;SDS011;4529;51.360;12.474;2023-06-22T21:21:44;1.50;;;1.40;;
8986;SDS011;4529;51.360;12.474;2023-06-22T21:26:47;1.40;;;1.30;;
8986;SDS011;4529;51.360;12.474;2023-06-22T21:31:51;1.50;;;1.50;;
8986;SDS011;4529;51.360;12.474;2023-06-22T21:36:54;2.13;;;1.70;;
8986;SDS011;4529;51.360;12.474;2023-06-22T21:41:58;3.10;;;1.70;;
8986;SDS011;4529;51.360;12.474;2023-06-22T21:47:01;1.90;;;1.80;;
8986;SDS011;4529;51.360;12.474;2023-06-22T21:52:05;4.50;;;2.00;;
8986;SDS011;4529;51.360;12.474;2023-06-22T21:57:08;2.10;;;1.90;;
8986;SDS011;4529;51.360;12.474;2023-06-22T22:02:12;1.97;;;1.80;;
8986;SDS011;4529;51.360;12.474;2023-06-22T22:07:15;1.83;;;1.73;;
8986;SDS011;4529;51.360;12.474;2023-06-22T22:12:19;1.67;;;1.53;;
8986;SDS011;4529;51.360;12.474;2023-06-22T22:17:22;2.20;;;2.07;;
8986;SDS011;4529;51.360;12.474;2023-06-22T22:22:26;5.23;;;2.20;;
8986;SDS011;4529;51.360;12.474;2023-06-22T22:27:32;2.20;;;2.00;;
8986;SDS011;4529;51.360;12.474;2023-06-22T22:32:33;2.47;;;2.00;;
8986;SDS011;4529;51.360;12.474;2023-06-22T22:37:36;2.53;;;2.00;;
8986;SDS011;4529;51.360;12.474;2023-06-22T22:42:39;1.93;;;1.80;;
8986;SDS011;4529;51.360;12.474;2023-06-22T22:47:43;2.20;;;2.00;;
8986;SDS011;4529;51.360;12.474;2023-06-22T22:52:46;2.07;;;1.97;;
8986;SDS011;4529;51.360;12.474;2023-06-22T22:57:50;3.63;;;1.80;;
8986;SDS011;4529;51.360;12.474;2023-06-22T23:02:53;2.00;;;1.90;;
8986;SDS011;4529;51.360;12.474;2023-06-22T23:07:57;2.03;;;1.83;;
8986;SDS011;4529;51.360;12.474;2023-06-22T23:13:00;2.17;;;1.97;;
8986;SDS011;4529;51.360;12.474;2023-06-22T23:18:04;2.10;;;1.90;;
8986;SDS011;4529;51.360;12.474;2023-06-22T23:23:07;2.07;;;1.90;;
8986;SDS011;4529;51.360;12.474;2023-06-22T23:28:11;3.43;;;1.77;;
8986;SDS011;4529;51.360;12.474;2023-06-22T23:33:13;1.83;;;1.70;;
8986;SDS011;4529;51.360;12.474;2023-06-22T23:38:17;3.50;;;2.00;;
8986;SDS011;4529;51.360;12.474;2023-06-22T23:43:20;2.57;;;1.90;;
8986;SDS011;4529;51.360;12.474;2023-06-22T23:48:24;2.87;;;1.60;;
8986;SDS011;4529;51.360;12.474;2023-06-22T23:53:27;2.27;;;1.90;;
8986;SDS011;4529;51.360;12.474;2023-06-22T23:58:31;2.40;;;2.20;;
